createdAt,value
2022-12-19T00:00:06.182Z,85.76
2022-12-19T00:01:46.220Z,85.99
2022-12-19T00:03:26.709Z,86.18
2022-12-19T00:05:06.733Z,86.25
2022-12-19T00:06:47.065Z,86.49
2022-12-19T00:08:27.390Z,86.79
2022-12-19T00:10:07.704Z,86.64
2022-12-19T00:11:48.023Z,86.88
2022-12-19T00:13:30.064Z,86.78
2022-12-19T00:15:08.629Z,87.14
2022-12-19T00:16:48.982Z,87.26
2022-12-19T00:18:29.274Z,87.35
2022-12-19T00:20:09.592Z,87.52
2022-12-19T00:21:50.094Z,87.73
2022-12-19T00:23:30.214Z,87.91
2022-12-19T00:25:10.525Z,87.95
2022-12-19T00:26:50.882Z,87.66
2022-12-19T00:28:31.155Z,88.39
2022-12-19T00:30:11.500Z,88.2
2022-12-19T00:31:51.933Z,88.74
2022-12-19T00:33:32.108Z,88.35
2022-12-19T00:35:12.443Z,89.02
2022-12-19T00:36:52.745Z,89.1
2022-12-19T00:38:33.060Z,89.39
2022-12-19T00:40:13.373Z,89.08
2022-12-19T00:41:53.645Z,89.28
2022-12-19T00:43:33.914Z,89.83
2022-12-19T00:45:14.230Z,89.55
2022-12-19T00:46:54.749Z,89.68
2022-12-19T00:48:34.838Z,89.96
2022-12-19T00:50:15.139Z,90.06
2022-12-19T00:51:55.417Z,89.95
2022-12-19T00:53:35.739Z,90.18
2022-12-19T00:55:19.194Z,90.76
2022-12-19T00:56:56.316Z,90.7
2022-12-19T00:58:36.587Z,90.84
2022-12-19T01:00:16.905Z,90.89
2022-12-19T01:01:57.463Z,90.42
2022-12-19T01:03:37.459Z,90.99
2022-12-19T01:05:17.759Z,90.87
2022-12-19T01:07:01.799Z,91.09
2022-12-19T01:08:38.362Z,91.41
2022-12-19T01:10:18.640Z,91.33
2022-12-19T01:11:58.948Z,91.06
2022-12-19T01:13:39.215Z,90.62
2022-12-19T01:15:19.514Z,91.46
2022-12-19T01:16:59.849Z,91.99
2022-12-19T01:18:40.109Z,92.28
2022-12-19T01:20:24.923Z,92.43
2022-12-19T01:22:00.704Z,92.57
2022-12-19T01:23:41.047Z,92.58
2022-12-19T01:25:21.313Z,92.4
2022-12-19T01:27:01.610Z,92.61
2022-12-19T01:28:41.896Z,92.8
2022-12-19T01:30:22.179Z,92.84
2022-12-19T01:32:02.536Z,92.79
2022-12-19T01:33:42.787Z,92.2
2022-12-19T01:35:23.061Z,92.14
2022-12-19T01:37:03.371Z,92.18
2022-12-19T01:38:43.657Z,92.18
2022-12-19T01:40:23.974Z,91.59
2022-12-19T01:42:04.249Z,91.46
2022-12-19T01:43:44.536Z,91.38
2022-12-19T01:45:28.936Z,91.04
2022-12-19T01:47:05.150Z,91
2022-12-19T01:48:45.442Z,90.93
2022-12-19T01:50:25.711Z,90.93
2022-12-19T01:52:06.048Z,91.32
2022-12-19T01:53:49.157Z,91.17
2022-12-19T01:55:26.624Z,91.41
2022-12-19T01:57:06.880Z,91.68
2022-12-19T01:58:47.193Z,91.57
2022-12-19T02:00:27.485Z,91.19
2022-12-19T02:02:07.912Z,91.54
2022-12-19T02:03:48.084Z,91.38
2022-12-19T02:05:28.344Z,91.64
2022-12-19T02:07:15.222Z,92.19
2022-12-19T02:08:48.972Z,92.16
2022-12-19T02:10:29.259Z,91.77
2022-12-19T02:12:09.537Z,92
2022-12-19T02:13:49.862Z,91.87
2022-12-19T02:15:30.153Z,91.65
2022-12-19T02:17:10.455Z,91.86
2022-12-19T02:18:50.803Z,91.61
2022-12-19T02:20:31.114Z,91.89
2022-12-19T02:22:16.091Z,91.9
2022-12-19T02:23:51.655Z,91.52
2022-12-19T02:25:31.982Z,91.44
2022-12-19T02:27:12.245Z,91.82
2022-12-19T02:28:52.547Z,91.55
2022-12-19T02:30:32.849Z,91.58
2022-12-19T02:32:13.134Z,91.31
2022-12-19T02:33:53.463Z,91.62
2022-12-19T02:35:33.708Z,91.23
2022-12-19T02:37:14.021Z,91.66
2022-12-19T02:38:54.316Z,91.91
2022-12-19T02:40:34.610Z,91.76
2022-12-19T02:42:14.911Z,91.58
2022-12-19T02:43:58.859Z,91.46
2022-12-19T02:45:35.599Z,91.71
2022-12-19T02:47:15.797Z,91.77
2022-12-19T02:48:56.096Z,91.11
2022-12-19T02:50:36.415Z,90.72
2022-12-19T02:52:16.691Z,91.11
2022-12-19T02:53:57.010Z,91.15
2022-12-19T02:55:37.288Z,91.1
2022-12-19T02:57:17.572Z,90.65
2022-12-19T02:58:57.894Z,90.89
2022-12-19T03:00:38.171Z,91.06
2022-12-19T03:02:18.682Z,90.66
2022-12-19T03:03:58.767Z,90.31
2022-12-19T03:05:39.073Z,90.22
2022-12-19T03:07:19.392Z,90.59
2022-12-19T03:08:59.640Z,90.57
2022-12-19T03:10:39.962Z,90.19
2022-12-19T03:12:20.229Z,90.44
2022-12-19T03:14:00.565Z,90.71
2022-12-19T03:15:40.868Z,90.72
2022-12-19T03:17:21.173Z,90.63
2022-12-19T03:19:01.480Z,91.06
2022-12-19T03:20:41.768Z,91.13
2022-12-19T03:22:22.096Z,91.01
2022-12-19T03:24:02.388Z,90.96
2022-12-19T03:25:42.665Z,91.14
2022-12-19T03:27:22.952Z,91.44
2022-12-19T03:29:03.278Z,91.5
2022-12-19T03:30:43.729Z,91.78
2022-12-19T03:32:23.892Z,91.64
2022-12-19T03:34:04.172Z,91.44
2022-12-19T03:35:44.447Z,91.31
2022-12-19T03:37:24.746Z,90.61
2022-12-19T03:39:05.076Z,90.84
2022-12-19T03:40:45.338Z,90.71
2022-12-19T03:42:25.644Z,90.86
2022-12-19T03:44:05.950Z,90.57
2022-12-19T03:45:46.338Z,90.72
2022-12-19T03:47:26.565Z,90.51
2022-12-19T03:49:06.838Z,89.91
2022-12-19T03:50:47.140Z,89.62
2022-12-19T03:52:27.452Z,89.76
2022-12-19T03:54:07.751Z,89.6
2022-12-19T03:55:48.041Z,89.79
2022-12-19T03:57:28.306Z,89.76
2022-12-19T03:59:08.641Z,89.73
2022-12-19T04:00:48.977Z,90.2
2022-12-19T04:02:29.341Z,90.17
2022-12-19T04:04:09.562Z,90.09
2022-12-19T04:05:49.838Z,90
2022-12-19T04:07:30.209Z,90.49
2022-12-19T04:09:10.452Z,90.2
2022-12-19T04:10:50.733Z,90.07
2022-12-19T04:12:31.031Z,90.64
2022-12-19T04:14:11.346Z,90.7
2022-12-19T04:15:51.809Z,90.79
2022-12-19T04:17:31.998Z,91.02
2022-12-19T04:19:12.296Z,91.28
2022-12-19T04:20:52.568Z,91.42
2022-12-19T04:22:32.869Z,91.59
2022-12-19T04:24:13.174Z,91.87
2022-12-19T04:25:53.483Z,91.42
2022-12-19T04:27:33.780Z,91.38
2022-12-19T04:29:14.059Z,91.59
2022-12-19T04:30:54.452Z,91.22
2022-12-19T04:32:34.647Z,91.36
2022-12-19T04:34:14.997Z,91.3
2022-12-19T04:35:55.237Z,91.36
2022-12-19T04:37:35.549Z,91.38
2022-12-19T04:39:15.840Z,91.41
2022-12-19T04:40:56.121Z,91.39
2022-12-19T04:42:36.423Z,91.31
2022-12-19T04:44:16.715Z,91.12
2022-12-19T04:45:57.680Z,90.74
2022-12-19T04:47:37.327Z,90.66
2022-12-19T04:49:17.631Z,90.43
2022-12-19T04:50:57.911Z,90.42
2022-12-19T04:52:38.198Z,90.6
2022-12-19T04:54:18.479Z,90.58
2022-12-19T04:55:58.778Z,90.76
2022-12-19T04:57:39.067Z,90.6
2022-12-19T04:59:19.375Z,90.42
2022-12-19T05:00:59.652Z,90.11
2022-12-19T05:02:40.098Z,90.29
2022-12-19T05:04:20.259Z,90.35
2022-12-19T05:06:00.548Z,90.28
2022-12-19T05:07:46.848Z,90.21
2022-12-19T05:09:27.165Z,90.44
2022-12-19T05:11:07.453Z,90.39
2022-12-19T05:12:47.732Z,90.42
2022-12-19T05:14:28.037Z,90.16
2022-12-19T05:16:08.387Z,90.22
2022-12-19T05:17:48.662Z,90.41
2022-12-19T05:19:28.937Z,90.59
2022-12-19T05:21:09.216Z,90.07
2022-12-19T05:22:49.549Z,90.26
2022-12-19T05:24:29.819Z,91.06
2022-12-19T05:26:10.126Z,91.38
2022-12-19T05:27:50.468Z,91.9
2022-12-19T05:29:30.749Z,92.22
2022-12-19T05:31:11.110Z,91.98
2022-12-19T05:32:51.323Z,92.08
2022-12-19T05:34:31.662Z,92.18
2022-12-19T05:36:11.927Z,92.06
2022-12-19T05:37:52.226Z,91.99
2022-12-19T05:39:32.559Z,92.44
2022-12-19T05:41:12.863Z,92.89
2022-12-19T05:42:53.141Z,92.74
2022-12-19T05:44:33.404Z,93.09
2022-12-19T05:46:13.853Z,93.13
2022-12-19T05:47:56.593Z,93.45
2022-12-19T05:49:34.343Z,93.48
2022-12-19T05:51:14.611Z,93.38
2022-12-19T05:52:54.892Z,93.37
2022-12-19T05:54:35.208Z,93.33
2022-12-19T05:56:15.481Z,93.39
2022-12-19T05:57:55.764Z,93.03
2022-12-19T05:59:36.065Z,93.08
2022-12-19T06:01:16.352Z,92.95
2022-12-19T06:02:56.798Z,93.1
2022-12-19T06:04:36.955Z,93.41
2022-12-19T06:06:17.235Z,93.13
2022-12-19T06:07:57.549Z,93.17
2022-12-19T06:09:37.847Z,93.13
2022-12-19T06:11:18.119Z,93.46
2022-12-19T06:12:58.435Z,93.02
2022-12-19T06:14:38.710Z,93.28
2022-12-19T06:16:19.127Z,93.22
2022-12-19T06:17:59.368Z,93
2022-12-19T06:19:39.641Z,93.23
2022-12-19T06:21:25.263Z,93.36
2022-12-19T06:23:05.681Z,93.23
2022-12-19T06:24:46.048Z,93.27
2022-12-19T06:26:26.443Z,93.12
2022-12-19T06:28:06.813Z,93.45
2022-12-19T06:29:47.180Z,93.5
2022-12-19T06:31:27.609Z,93.82
2022-12-19T06:33:07.957Z,93.71
2022-12-19T06:35:03.764Z,93.73
2022-12-19T06:36:28.620Z,93.29
2022-12-19T06:38:08.884Z,93.39
2022-12-19T06:39:49.178Z,93.5
2022-12-19T06:41:29.492Z,93.58
2022-12-19T06:43:09.781Z,93.67
2022-12-19T06:44:50.084Z,93.8
2022-12-19T06:46:30.371Z,93.86
2022-12-19T06:48:10.678Z,93.68
2022-12-19T06:49:50.957Z,93.87
2022-12-19T06:51:31.256Z,93.85
2022-12-19T06:53:11.572Z,94.22
2022-12-19T06:54:51.875Z,94.09
2022-12-19T06:56:32.162Z,94.41
2022-12-19T06:58:12.454Z,94.6
2022-12-19T06:59:52.750Z,94.82
2022-12-19T07:01:33.208Z,94.72
2022-12-19T07:03:13.386Z,95.09
2022-12-19T07:04:53.637Z,95.35
2022-12-19T07:06:33.913Z,95.61
2022-12-19T07:08:14.214Z,95.66
2022-12-19T07:09:54.593Z,95.83
2022-12-19T07:11:34.981Z,96.1
2022-12-19T07:13:15.425Z,96.23
2022-12-19T07:14:55.808Z,96.38
2022-12-19T07:16:36.146Z,96.53
2022-12-19T07:18:16.412Z,96.64
2022-12-19T07:19:56.801Z,96.74
2022-12-19T07:21:37.112Z,96.87
2022-12-19T07:23:17.512Z,97.06
2022-12-19T07:24:57.895Z,97.08
2022-12-19T07:26:38.308Z,97.11
2022-12-19T07:28:18.765Z,97.17
2022-12-19T07:29:59.064Z,97.24
2022-12-19T07:31:39.396Z,97.26
2022-12-19T07:33:21.710Z,97.32
2022-12-19T07:35:00.056Z,97.41
2022-12-19T07:36:40.368Z,97.5
2022-12-19T07:38:20.756Z,97.55
2022-12-19T07:40:01.145Z,97.62
2022-12-19T07:41:41.556Z,97.72
2022-12-19T07:43:21.877Z,97.86
2022-12-19T07:45:02.252Z,97.89
2022-12-19T07:46:42.650Z,98.01
2022-12-19T07:48:22.880Z,98.18
2022-12-19T07:50:03.206Z,98.3
2022-12-19T07:51:43.541Z,98.32
2022-12-19T07:53:23.839Z,98.5
2022-12-19T07:55:04.204Z,98.58
2022-12-19T07:56:44.467Z,98.72
2022-12-19T07:58:24.759Z,98.75
2022-12-19T08:00:05.102Z,98.91
2022-12-19T08:01:45.554Z,99.04
2022-12-19T08:03:25.797Z,98.94
2022-12-19T08:05:06.049Z,99.08
2022-12-19T08:06:46.334Z,99.09
2022-12-19T08:08:26.651Z,99.11
2022-12-19T08:10:07.002Z,99.19
2022-12-19T08:11:47.303Z,99.28
2022-12-19T08:13:31.082Z,99.29
2022-12-19T08:15:07.946Z,99.35
2022-12-19T08:17:19.166Z,99.43
2022-12-19T08:18:28.543Z,99.44
2022-12-19T08:20:08.972Z,99.42
2022-12-19T08:21:49.289Z,99.49
2022-12-19T08:23:29.635Z,99.53
2022-12-19T08:25:09.925Z,99.5
2022-12-19T08:26:50.229Z,99.48
2022-12-19T08:28:30.583Z,99.5
2022-12-19T08:30:10.864Z,99.51
2022-12-19T08:31:51.193Z,99.57
2022-12-19T08:33:31.512Z,99.61
2022-12-19T08:35:11.898Z,99.62
2022-12-19T08:36:52.114Z,99.6
2022-12-19T08:38:32.445Z,99.61
2022-12-19T08:40:12.774Z,99.66
2022-12-19T08:41:53.073Z,99.64
2022-12-19T08:43:33.404Z,99.63
2022-12-19T08:45:13.675Z,99.65
2022-12-19T08:46:53.997Z,99.7
2022-12-19T08:48:34.346Z,99.68
2022-12-19T08:50:14.675Z,99.67
2022-12-19T08:51:54.960Z,99.6
2022-12-19T08:53:35.271Z,99.6
2022-12-19T08:55:15.616Z,99.56
2022-12-19T08:56:55.943Z,99.53
2022-12-19T08:58:36.251Z,99.53
2022-12-19T09:00:16.568Z,99.43
2022-12-19T09:01:57.130Z,99.45
2022-12-19T09:03:59.568Z,99.42
2022-12-19T09:06:05.215Z,99.33
2022-12-19T09:06:57.818Z,99.22
2022-12-19T09:08:38.180Z,99.19
2022-12-19T09:10:18.561Z,99.19
2022-12-19T09:11:58.923Z,99.06
2022-12-19T09:13:39.352Z,98.91
2022-12-19T09:15:19.704Z,98.86
2022-12-19T09:17:00.122Z,98.77
2022-12-19T09:18:45.157Z,98.69
2022-12-19T09:20:23.405Z,98.57
2022-12-19T09:22:01.126Z,98.54
2022-12-19T09:23:41.535Z,98.39
2022-12-19T09:25:21.932Z,98.23
2022-12-19T09:27:02.347Z,98.08
2022-12-19T09:28:42.764Z,98.06
2022-12-19T09:30:23.188Z,98.03
2022-12-19T09:32:03.404Z,98.02
2022-12-19T09:33:44.260Z,97.92
2022-12-19T09:35:28.528Z,97.88
2022-12-19T09:37:04.562Z,97.8
2022-12-19T09:38:45.279Z,97.85
2022-12-19T09:40:25.339Z,97.75
2022-12-19T09:42:05.689Z,97.69
2022-12-19T09:43:46.158Z,97.64
2022-12-19T09:45:32.361Z,97.61
2022-12-19T09:47:06.888Z,97.51
2022-12-19T09:48:52.661Z,97.51
2022-12-19T09:50:27.637Z,97.5
2022-12-19T09:52:08.028Z,97.44
2022-12-19T09:53:53.801Z,97.37
2022-12-19T09:55:28.696Z,97.27
2022-12-19T09:57:09.116Z,97.17
2022-12-19T09:58:49.480Z,97.02
2022-12-19T10:00:29.830Z,96.93
2022-12-19T10:02:10.433Z,96.83
2022-12-19T10:03:50.624Z,96.71
2022-12-19T10:06:26.490Z,96.65
2022-12-19T10:07:40.222Z,96.57
2022-12-19T10:09:17.126Z,96.6
2022-12-19T10:12:38.372Z,96.67
2022-12-19T10:12:43.158Z,96.65
2022-12-19T10:13:52.390Z,96.68
2022-12-19T10:15:32.719Z,96.67
2022-12-19T10:17:28.341Z,96.67
2022-12-19T10:18:56.663Z,96.62
2022-12-19T10:20:33.609Z,96.52
2022-12-19T10:22:18.896Z,96.43
2022-12-19T10:23:54.221Z,96.42
2022-12-19T10:25:34.534Z,96.43
2022-12-19T10:27:14.785Z,96.35
2022-12-19T10:28:55.084Z,96.42
2022-12-19T10:30:35.413Z,96.34
2022-12-19T10:32:15.953Z,96.46
2022-12-19T10:33:56.030Z,96.35
2022-12-19T10:35:36.333Z,96.32
2022-12-19T10:37:24.439Z,95.97
2022-12-19T10:38:56.925Z,96.11
2022-12-19T10:40:37.259Z,96.15
2022-12-19T10:42:17.536Z,95.97
2022-12-19T10:43:57.835Z,96.01
2022-12-19T10:45:38.120Z,95.93
2022-12-19T10:47:18.434Z,95.87
2022-12-19T10:48:58.772Z,95.88
2022-12-19T10:50:39.117Z,95.76
2022-12-19T10:52:19.334Z,95.66
2022-12-19T10:53:59.713Z,95.73
2022-12-19T10:55:39.948Z,95.71
2022-12-19T10:57:20.278Z,95.83
2022-12-19T10:59:00.617Z,95.69
2022-12-19T11:00:40.844Z,95.66
2022-12-19T11:02:21.305Z,95.41
2022-12-19T11:04:01.479Z,95.43
2022-12-19T11:05:41.726Z,95.74
2022-12-19T11:07:22.049Z,95.77
2022-12-19T11:09:02.351Z,95.72
2022-12-19T11:12:12.949Z,95.68
2022-12-19T11:16:15.549Z,95.56
2022-12-19T11:17:09.098Z,95.51
2022-12-19T11:22:07.756Z,95.48
2022-12-19T11:23:42.495Z,95.43
2022-12-19T11:29:26.598Z,95.39
2022-12-19T11:29:32.069Z,95.24
2022-12-19T11:29:40.576Z,95.33
2022-12-19T11:30:07.052Z,95.26
2022-12-19T11:30:38.060Z,95.28
2022-12-19T11:30:40.970Z,95.19
2022-12-19T11:30:43.368Z,95.24
2022-12-19T11:32:40.535Z,95.32
2022-12-19T11:34:12.790Z,95.37
2022-12-19T11:35:53.094Z,95.15
2022-12-19T11:37:33.371Z,95.1
2022-12-19T11:39:13.683Z,95.11
2022-12-19T11:40:53.995Z,95.17
2022-12-19T11:42:34.277Z,95.22
2022-12-19T11:44:14.562Z,95.04
2022-12-19T11:45:54.880Z,94.75
2022-12-19T11:47:35.175Z,94.81
2022-12-19T11:49:15.486Z,94.91
2022-12-19T11:50:55.753Z,94.66
2022-12-19T11:54:16.372Z,94.43
2022-12-19T11:55:56.686Z,94.21
2022-12-19T11:57:36.989Z,94.41
2022-12-19T11:59:17.222Z,94.23
2022-12-19T12:00:57.577Z,93.89
2022-12-19T12:02:37.842Z,93.76
2022-12-19T12:04:18.207Z,94
2022-12-19T12:05:58.498Z,93.91
2022-12-19T12:09:05.714Z,93.56
2022-12-19T12:14:26.579Z,93.64
2022-12-19T12:16:31.151Z,93.82
2022-12-19T12:21:19.811Z,94.13
2022-12-19T12:22:46.449Z,93.9
2022-12-19T12:24:01.069Z,93.93
2022-12-19T12:29:22.899Z,93.88
2022-12-19T12:31:10.966Z,94.04
2022-12-19T12:31:20.310Z,94.04
2022-12-19T12:31:20.598Z,93.93
2022-12-19T12:31:40.621Z,94.01
2022-12-19T12:31:45.830Z,93.99
2022-12-19T12:31:49.434Z,94
2022-12-19T12:31:53.068Z,93.96
2022-12-19T12:35:42.532Z,94.43
2022-12-19T12:35:46.741Z,94.36
2022-12-19T12:39:29.792Z,94.34
2022-12-19T12:41:05.928Z,94.31
2022-12-19T12:42:46.324Z,94.27
2022-12-19T12:44:32.655Z,94.49
2022-12-19T12:46:07.147Z,94.73
2022-12-19T12:47:47.487Z,94.74
2022-12-19T12:49:27.827Z,94.84
2022-12-19T12:51:08.226Z,94.92
2022-12-19T12:52:48.590Z,94.8
2022-12-19T12:54:28.917Z,94.94
2022-12-19T12:56:09.339Z,95.21
2022-12-19T12:57:49.674Z,94.96
2022-12-19T12:59:29.956Z,95.09
2022-12-19T13:01:10.490Z,95.06
2022-12-19T13:02:50.966Z,94.93
2022-12-19T13:04:31.047Z,95.12
2022-12-19T13:06:11.351Z,95.06
2022-12-19T13:07:51.711Z,94.92
2022-12-19T13:09:32.084Z,94.85
2022-12-19T13:11:12.372Z,95.02
2022-12-19T13:12:52.702Z,95.15
2022-12-19T13:14:33.011Z,95.18
2022-12-19T13:16:13.347Z,95.14
2022-12-19T13:17:53.654Z,95.03
2022-12-19T13:19:33.994Z,94.95
2022-12-19T13:21:14.266Z,94.88
2022-12-19T13:22:54.638Z,94.8
2022-12-19T13:24:34.992Z,94.86
2022-12-19T13:26:19.660Z,94.62
2022-12-19T13:27:55.772Z,94.63
2022-12-19T13:29:36.118Z,94.59
2022-12-19T13:31:18.712Z,94.56
2022-12-19T13:32:56.894Z,94.59
2022-12-19T13:34:37.303Z,94.47
2022-12-19T13:39:46.885Z,94.24
2022-12-19T13:39:57.352Z,94.17
2022-12-19T13:39:59.856Z,94.23
2022-12-19T13:41:18.819Z,94.46
2022-12-19T13:43:10.920Z,94.28
2022-12-19T13:44:39.667Z,94.29
2022-12-19T13:46:20.065Z,94.15
2022-12-19T13:48:00.469Z,94.18
2022-12-19T13:49:40.864Z,94.01
2022-12-19T13:51:21.185Z,94.06
2022-12-19T13:53:01.538Z,94.09
2022-12-19T13:54:41.910Z,94.03
2022-12-19T13:56:22.262Z,94.12
2022-12-19T13:58:02.644Z,94.06
2022-12-19T13:59:59.747Z,94.08
2022-12-19T14:01:23.444Z,94
2022-12-19T14:03:03.790Z,94
2022-12-19T14:04:43.896Z,94.1
2022-12-19T14:06:24.285Z,94.02
2022-12-19T14:08:04.491Z,94.18
2022-12-19T14:11:33.672Z,94.29
2022-12-19T14:11:48.748Z,94.42
2022-12-19T14:13:42.534Z,94.38
2022-12-19T14:14:46.082Z,94.26
2022-12-19T14:16:43.542Z,94.29
2022-12-19T14:18:41.842Z,94.36
2022-12-19T14:19:47.129Z,94.31
2022-12-19T14:22:07.203Z,94.17
2022-12-19T14:23:07.798Z,94.38
2022-12-19T14:24:48.112Z,94.18
2022-12-19T14:28:23.599Z,94.26
2022-12-19T14:28:24.406Z,94.34
2022-12-19T14:30:30.826Z,94.27
2022-12-19T14:31:29.706Z,94.23
2022-12-19T14:33:41.970Z,94.21
2022-12-19T14:36:04.955Z,94.31
2022-12-19T14:36:30.848Z,94.25
2022-12-19T14:39:18.330Z,94.31
2022-12-19T14:39:51.608Z,94.33
2022-12-19T14:41:32.120Z,94.33
2022-12-19T14:44:00.162Z,94.42
2022-12-19T14:53:51.146Z,94.44
2022-12-19T14:54:03.751Z,94.59
2022-12-19T14:54:13.811Z,94.48
2022-12-19T14:54:25.923Z,94.6
2022-12-19T14:54:50.609Z,94.62
2022-12-19T14:56:08.775Z,94.53
2022-12-19T14:58:52.848Z,94.52
2022-12-19T14:59:55.621Z,94.56
2022-12-19T15:01:36.528Z,94.56
2022-12-19T15:03:16.513Z,94.64
2022-12-19T15:04:56.740Z,94.71
2022-12-19T15:07:08.389Z,94.75
2022-12-19T15:08:17.179Z,94.71
2022-12-19T15:10:58.552Z,94.61
2022-12-19T15:11:55.492Z,94.46
2022-12-19T15:14:46.908Z,94.52
2022-12-19T15:15:00.058Z,94.54
2022-12-19T15:16:38.822Z,94.51
2022-12-19T15:18:19.084Z,94.36
2022-12-19T15:19:59.542Z,94.32
2022-12-19T15:21:39.780Z,94.2
2022-12-19T15:23:22.719Z,94.3
2022-12-19T15:25:00.429Z,94.27
2022-12-19T15:26:40.725Z,94.46
2022-12-19T15:28:21.083Z,94.73
2022-12-19T15:30:01.338Z,94.55
2022-12-19T15:31:41.759Z,94.59
2022-12-19T15:33:21.923Z,94.51
2022-12-19T15:35:02.193Z,94.51
2022-12-19T15:36:42.479Z,94.55
2022-12-19T15:38:22.771Z,94.7
2022-12-19T15:40:03.072Z,94.73
2022-12-19T15:41:43.327Z,94.69
2022-12-19T15:44:01.996Z,94.45
2022-12-19T15:45:03.927Z,94.33
2022-12-19T15:46:48.719Z,94.27
2022-12-19T15:48:24.448Z,94.4
2022-12-19T15:50:04.770Z,94.55
2022-12-19T15:51:45.025Z,94.74
2022-12-19T15:53:38.083Z,94.92
2022-12-19T15:55:05.643Z,95.01
2022-12-19T15:56:45.893Z,95.18
2022-12-19T15:58:26.168Z,95.21
2022-12-19T16:00:06.493Z,95.42
2022-12-19T16:01:47.082Z,95.69
2022-12-19T16:03:27.426Z,95.91
2022-12-19T16:05:07.361Z,95.86
2022-12-19T16:06:47.677Z,96.08
2022-12-19T16:08:27.952Z,96.37
2022-12-19T16:10:08.240Z,96.42
2022-12-19T16:11:48.578Z,96.3
2022-12-19T16:13:28.867Z,96.05
2022-12-19T16:15:09.143Z,95.95
2022-12-19T16:16:49.555Z,96.03
2022-12-19T16:18:32.907Z,96.11
2022-12-19T16:20:10.127Z,95.92
2022-12-19T16:21:50.414Z,95.81
2022-12-19T16:23:30.700Z,95.86
2022-12-19T16:25:10.995Z,95.95
2022-12-19T16:26:51.276Z,96.22
2022-12-19T16:28:31.566Z,96.25
2022-12-19T16:30:18.140Z,96.16
2022-12-19T16:31:52.263Z,96.05
2022-12-19T16:33:32.479Z,96.15
2022-12-19T16:35:12.787Z,96.28
2022-12-19T16:36:53.112Z,96.13
2022-12-19T16:38:33.543Z,96.22
2022-12-19T16:40:13.713Z,96.17
2022-12-19T16:41:54.139Z,96.25
2022-12-19T16:43:34.450Z,96.43
2022-12-19T16:45:14.821Z,96.46
2022-12-19T16:46:55.256Z,96.38
2022-12-19T16:48:35.647Z,96.35
2022-12-19T16:50:15.984Z,96.22
2022-12-19T16:51:56.312Z,95.97
2022-12-19T16:53:36.702Z,95.85
2022-12-19T16:55:16.997Z,95.68
2022-12-19T16:56:57.353Z,95.64
2022-12-19T16:58:42.969Z,95.45
2022-12-19T17:00:18.159Z,95.46
2022-12-19T17:01:58.609Z,95.38
2022-12-19T17:03:38.904Z,95.28
2022-12-19T17:05:19.227Z,95.27
2022-12-19T17:07:03.313Z,95.28
2022-12-19T17:08:41.132Z,95.48
2022-12-19T17:10:26.109Z,95.43
2022-12-19T17:12:01.790Z,95.39
2022-12-19T17:13:42.215Z,95.26
2022-12-19T17:15:22.621Z,95.46
2022-12-19T17:17:02.950Z,95.45
2022-12-19T17:18:43.139Z,95.31
2022-12-19T17:20:23.525Z,95.26
2022-12-19T17:22:03.791Z,95.35
2022-12-19T17:23:44.063Z,95.28
2022-12-19T17:25:24.294Z,95.22
2022-12-19T17:27:04.530Z,95.19
2022-12-19T17:28:44.736Z,95.22
2022-12-19T17:30:25.039Z,95.27
2022-12-19T17:32:05.391Z,95.44
2022-12-19T17:33:45.529Z,95.61
2022-12-19T17:35:28.038Z,95.69
2022-12-19T17:37:05.803Z,95.78
2022-12-19T17:38:46.000Z,96.09
2022-12-19T17:40:26.144Z,95.98
2022-12-19T17:42:06.321Z,96.21
2022-12-19T17:43:46.490Z,96.19
2022-12-19T17:45:26.792Z,96.19
2022-12-19T17:47:06.887Z,96.32
2022-12-19T17:48:47.001Z,95.92
2022-12-19T17:50:27.207Z,95.88
2022-12-19T17:52:07.321Z,95.88
2022-12-19T17:53:47.556Z,95.93
2022-12-19T17:55:27.712Z,95.76
2022-12-19T17:57:07.888Z,95.79
2022-12-19T17:58:48.053Z,95.57
2022-12-19T18:00:30.624Z,95.42
2022-12-19T18:02:08.652Z,95.47
2022-12-19T18:03:48.621Z,95.27
2022-12-19T18:05:28.644Z,95.15
2022-12-19T18:07:11.882Z,95
2022-12-19T18:08:49.039Z,94.82
2022-12-19T18:10:29.171Z,94.78
2022-12-19T18:12:09.373Z,94.8
2022-12-19T18:13:49.558Z,94.69
2022-12-19T18:15:29.705Z,94.71
2022-12-19T18:17:09.942Z,94.77
2022-12-19T18:18:50.074Z,94.63
2022-12-19T18:20:32.115Z,94.53
2022-12-19T18:22:10.408Z,94.42
2022-12-19T18:23:50.587Z,94.25
2022-12-19T18:25:30.839Z,94.11
2022-12-19T18:27:10.986Z,94.08
2022-12-19T18:28:51.160Z,94.09
2022-12-19T18:30:31.300Z,94.13
2022-12-19T18:32:11.437Z,94.23
2022-12-19T18:33:51.628Z,94.24
2022-12-19T18:35:31.779Z,94.24
2022-12-19T18:37:12.004Z,94.29
2022-12-19T18:38:52.164Z,94.36
2022-12-19T18:40:32.318Z,94.4
2022-12-19T18:42:12.443Z,94.47
2022-12-19T18:43:52.638Z,94.41
2022-12-19T18:45:32.894Z,94.63
2022-12-19T18:47:12.987Z,94.61
2022-12-19T18:48:53.168Z,94.45
2022-12-19T18:50:33.308Z,94.39
2022-12-19T18:52:13.457Z,94.34
2022-12-19T18:53:53.600Z,94.1
2022-12-19T18:55:33.823Z,93.96
2022-12-19T18:57:14.019Z,93.9
2022-12-19T18:58:54.245Z,93.94
2022-12-19T19:00:34.379Z,93.74
2022-12-19T19:02:14.721Z,93.59
2022-12-19T19:03:54.905Z,93.57
2022-12-19T19:05:34.945Z,93.56
2022-12-19T19:07:15.121Z,93.61
2022-12-19T19:08:55.265Z,93.6
2022-12-19T19:10:35.382Z,93.41
2022-12-19T19:12:15.528Z,93.41
2022-12-19T19:13:55.754Z,93.4
2022-12-19T19:15:35.923Z,93.33
2022-12-19T19:17:16.263Z,93.28
2022-12-19T19:18:56.233Z,93.2
2022-12-19T19:20:36.428Z,93.22
2022-12-19T19:22:16.667Z,93.04
2022-12-19T19:23:56.808Z,92.78
2022-12-19T19:25:36.983Z,92.65
2022-12-19T19:27:17.207Z,92.47
2022-12-19T19:28:57.372Z,92.35
2022-12-19T19:30:37.584Z,92.3
2022-12-19T19:32:17.739Z,92.06
2022-12-19T19:33:57.951Z,92.13
2022-12-19T19:35:38.208Z,92.15
2022-12-19T19:37:18.435Z,92.13
2022-12-19T19:38:58.617Z,92.16
2022-12-19T19:40:38.713Z,92.27
2022-12-19T19:42:18.919Z,92.37
2022-12-19T19:43:59.037Z,92.19
2022-12-19T19:45:43.144Z,92.07
2022-12-19T19:47:19.419Z,92.1
2022-12-19T19:48:59.537Z,91.91
2022-12-19T19:50:39.783Z,91.92
2022-12-19T19:52:19.845Z,91.93
2022-12-19T19:54:00.065Z,92.05
2022-12-19T19:55:40.164Z,91.95
2022-12-19T19:57:20.328Z,91.89
2022-12-19T19:59:00.625Z,91.84
2022-12-19T20:00:40.766Z,91.73
2022-12-19T20:02:21.161Z,91.71
2022-12-19T20:04:01.246Z,91.58
2022-12-19T20:05:41.308Z,91.51
2022-12-19T20:07:21.524Z,91.67
2022-12-19T20:09:01.622Z,91.74
2022-12-19T20:10:41.786Z,91.83
2022-12-19T20:12:21.961Z,91.82
2022-12-19T20:14:02.146Z,91.84
2022-12-19T20:15:49.333Z,91.79
2022-12-19T20:17:22.495Z,91.91
2022-12-19T20:19:02.743Z,91.83
2022-12-19T20:20:42.821Z,91.81
2022-12-19T20:22:23.014Z,91.81
2022-12-19T20:24:03.173Z,91.86
2022-12-19T20:25:43.295Z,91.88
2022-12-19T20:27:23.454Z,91.88
2022-12-19T20:29:03.662Z,91.85
2022-12-19T20:30:43.821Z,91.86
2022-12-19T20:32:24.008Z,91.76
2022-12-19T20:34:04.212Z,91.76
2022-12-19T20:35:44.369Z,91.63
2022-12-19T20:37:24.591Z,91.49
2022-12-19T20:39:04.817Z,91.54
2022-12-19T20:40:44.986Z,91.59
2022-12-19T20:42:25.156Z,91.54
2022-12-19T20:44:05.333Z,91.53
2022-12-19T20:45:45.520Z,91.5
2022-12-19T20:47:25.726Z,91.54
2022-12-19T20:49:05.951Z,91.66
2022-12-19T20:50:46.082Z,91.6
2022-12-19T20:52:26.267Z,91.49
2022-12-19T20:54:06.411Z,91.52
2022-12-19T20:55:46.602Z,91.64
2022-12-19T20:57:26.788Z,91.67
2022-12-19T20:59:07.042Z,91.57
2022-12-19T21:00:47.174Z,91.52
2022-12-19T21:02:27.610Z,91.38
2022-12-19T21:04:07.702Z,91.32
2022-12-19T21:05:47.667Z,91.31
2022-12-19T21:07:27.805Z,91.29
2022-12-19T21:09:07.969Z,91.39
2022-12-19T21:10:48.108Z,91.4
2022-12-19T21:12:28.276Z,91.3
2022-12-19T21:14:08.467Z,91.28
2022-12-19T21:15:48.622Z,91.33
2022-12-19T21:17:28.820Z,91.39
2022-12-19T21:19:08.993Z,91.42
2022-12-19T21:20:49.115Z,91.31
2022-12-19T21:22:29.241Z,91.32
2022-12-19T21:24:09.423Z,91.38
2022-12-19T21:25:49.662Z,91.43
2022-12-19T21:27:29.853Z,91.51
2022-12-19T21:29:09.996Z,91.55
2022-12-19T21:30:50.193Z,91.48
2022-12-19T21:32:30.360Z,91.39
2022-12-19T21:34:10.554Z,91.3
2022-12-19T21:35:50.724Z,91.36
2022-12-19T21:37:30.922Z,91.49
2022-12-19T21:39:11.093Z,91.43
2022-12-19T21:40:51.276Z,91.42
2022-12-19T21:42:31.463Z,91.29
2022-12-19T21:44:11.589Z,91.11
2022-12-19T21:45:51.833Z,91.04
2022-12-19T21:47:31.938Z,91.03